Home   Weather   USA   Washington DC   Past weeks
Flag for USA

Past Weather in Washington DC, USA — January 2021

Currently: 77 °F. Passing clouds. (Weather station: Reagan National Airport, USA). See more current weather

January 2021 Weather in Washington DC — Graph

°F

High & Low Weather Summary for January 2021

 TemperatureHumidityPressure
High57 °F (Jan 2, 1:52 pm)100% (Jan 2, 1:52 am)30.52 "Hg (Jan 2, 1:52 am)
Low24 °F (Jan 30, 5:52 am)22% (Jan 19, 3:52 pm)29.50 "Hg (Jan 16, 1:52 pm)
Average38 °F65%30.05 "Hg
* Reported Jan 1 12:52 am — Jan 31 11:52 pm, Washington DC. Weather by CustomWeather, © 2022

Note: Actual official high and low records may vary slightly from our data, if they occured in-between our weather recording intervals... More about our weather records

Washington DC Weather History for January 1, 2021

Scroll right to see more
 ConditionsComfort  
Time TempWeatherWind HumidityBarometerVisibility
12:52 am
Fri, Jan 1
41 °FOvercast.13 mph60%30.44 "Hg10 mi
1:52 am39 °FOvercast.10 mph65%30.46 "Hg10 mi
2:52 am39 °FOvercast.9 mph62%30.47 "Hg10 mi
3:52 am38 °FMostly cloudy.8 mph63%30.48 "Hg10 mi
4:52 am38 °FOvercast.9 mph63%30.49 "Hg10 mi
5:52 am37 °FOvercast.8 mph65%30.50 "Hg10 mi
6:52 am37 °FOvercast.10 mph62%30.49 "Hg10 mi
7:52 am37 °FOvercast.6 mph62%30.51 "Hg10 mi
8:52 am37 °FOvercast.7 mph62%30.52 "Hg10 mi
9:52 am37 °FMostly cloudy.10 mph65%30.49 "Hg10 mi
10:52 am38 °FLight rain. Mostly cloudy.6 mph68%30.47 "Hg10 mi
11:52 am36 °FLight rain. Mostly cloudy.5 mph79%30.44 "Hg4 mi
12:32 pm37 °FLight rain. More clouds than sun.8 mph82%30.39 "Hg10 mi
12:52 pm37 °FMostly cloudy.8 mph82%30.37 "Hg10 mi
1:52 pm37 °FCloudy.9 mph86%30.31 "Hg10 mi
2:23 pm37 °FMostly cloudy.6 mph86%30.33 "Hg10 mi
2:37 pm37 °FMostly cloudy.7 mph86%30.33 "Hg10 mi
2:52 pm37 °FOvercast.6 mph86%30.32 "Hg10 mi
3:19 pm37 °FLight rain. Fog.6 mph86%30.33 "Hg2 mi
3:36 pm37 °FLight rain. Fog.7 mph89%30.30 "Hg3 mi
4:03 pm37 °FRain. Fog.12 mph89%30.29 "Hg3 mi
4:52 pm36 °FRain. Fog.9 mph92%30.25 "Hg4 mi
5:52 pm37 °FLight rain. Fog.5 mph93%30.22 "Hg6 mi
6:52 pm37 °FLight rain. Fog.3 mph93%30.20 "Hg5 mi
7:52 pm38 °FLight rain. Fog.7 mph93%30.18 "Hg5 mi
8:30 pm38 °FRain. Fog.9 mph90%30.17 "Hg4 mi
9:09 pm37 °FLight rain. Fog.5 mph93%30.12 "Hg6 mi
9:17 pm37 °FRain. Fog.3 mph96%30.10 "Hg5 mi
9:52 pm38 °FRain. Fog.17 mph93%29.93 "Hg3 mi
10:12 pm38 °FLight rain. Mostly cloudy.7 mph93%30.01 "Hg10 mi
10:52 pm38 °FLow clouds.8 mph93%30.01 "Hg10 mi
11:59 pm38 °FLow clouds.9 mph90%29.99 "Hg10 mi
Weather by CustomWeather, © 2022

See weather overview